sensor_id;sensor_type;location;lat;lon;timestamp;pressure;altitude;pressure_sealevel;temperature;humidity
43125;BME280;49182;50.788;7.318;2023-04-10T00:00:35;101555.44;;;2.90;88.75
43125;BME280;49182;50.788;7.318;2023-04-10T00:03:01;101565.72;;;2.93;88.64
43125;BME280;49182;50.788;7.318;2023-04-10T00:05:29;101559.72;;;2.91;88.47
43125;BME280;49182;50.788;7.318;2023-04-10T00:07:55;101545.38;;;2.80;88.45
43125;BME280;49182;50.788;7.318;2023-04-10T00:10:23;101545.06;;;2.88;88.53
43125;BME280;49182;50.788;7.318;2023-04-10T00:12:50;101546.22;;;2.81;88.45
43125;BME280;49182;50.788;7.318;2023-04-10T00:15:17;101526.75;;;2.68;88.31
43125;BME280;49182;50.788;7.318;2023-04-10T00:17:43;101551.53;;;2.78;88.49
43125;BME280;49182;50.788;7.318;2023-04-10T00:20:11;101542.16;;;2.74;88.70
43125;BME280;49182;50.788;7.318;2023-04-10T00:22:38;101532.16;;;2.63;88.94
43125;BME280;49182;50.788;7.318;2023-04-10T00:25:05;101541.34;;;2.72;89.15
43125;BME280;49182;50.788;7.318;2023-04-10T00:27:33;101541.25;;;2.75;89.14
43125;BME280;49182;50.788;7.318;2023-04-10T00:30:00;101536.94;;;2.74;89.49
43125;BME280;49182;50.788;7.318;2023-04-10T00:32:26;101526.16;;;2.61;89.82
43125;BME280;49182;50.788;7.318;2023-04-10T00:34:54;101539.19;;;2.61;90.05
43125;BME280;49182;50.788;7.318;2023-04-10T00:37:21;101531.63;;;2.55;90.00
43125;BME280;49182;50.788;7.318;2023-04-10T00:39:47;101535.81;;;2.59;89.82
43125;BME280;49182;50.788;7.318;2023-04-10T00:42:14;101537.63;;;2.57;89.80
43125;BME280;49182;50.788;7.318;2023-04-10T00:44:42;101534.13;;;2.58;89.57
43125;BME280;49182;50.788;7.318;2023-04-10T00:47:09;101524.59;;;2.57;89.52
43125;BME280;49182;50.788;7.318;2023-04-10T00:49:35;101522.88;;;2.56;89.34
43125;BME280;49182;50.788;7.318;2023-04-10T00:52:02;101524.59;;;2.57;89.23
43125;BME280;49182;50.788;7.318;2023-04-10T00:54:29;101521.06;;;2.58;89.14
43125;BME280;49182;50.788;7.318;2023-04-10T00:56:57;101519.38;;;2.57;89.34
43125;BME280;49182;50.788;7.318;2023-04-10T00:59:23;101519.25;;;2.60;89.13
43125;BME280;49182;50.788;7.318;2023-04-10T01:01:52;101512.50;;;2.55;89.08
43125;BME280;49182;50.788;7.318;2023-04-10T01:04:19;101516.81;;;2.56;89.63
43125;BME280;49182;50.788;7.318;2023-04-10T01:06:53;101511.63;;;2.56;89.84
43125;BME280;49182;50.788;7.318;2023-04-10T01:09:31;101504.09;;;2.48;89.76
43125;BME280;49182;50.788;7.318;2023-04-10T01:12:07;101508.28;;;2.52;89.92
43125;BME280;49182;50.788;7.318;2023-04-10T01:14:41;101510.94;;;2.51;90.05
43125;BME280;49182;50.788;7.318;2023-04-10T01:17:17;101496.66;;;2.39;90.22
43125;BME280;49182;50.788;7.318;2023-04-10T01:20:03;101514.47;;;2.50;90.04
43125;BME280;49182;50.788;7.318;2023-04-10T01:22:35;101509.31;;;2.48;90.40
43125;BME280;49182;50.788;7.318;2023-04-10T01:25:39;101508.44;;;2.48;90.39
43125;BME280;49182;50.788;7.318;2023-04-10T01:31:15;101504.75;;;2.53;90.93
43125;BME280;49182;50.788;7.318;2023-04-10T01:33:46;101505.78;;;2.49;91.21
43125;BME280;49182;50.788;7.318;2023-04-10T01:36:16;101505.06;;;2.46;91.59
43125;BME280;49182;50.788;7.318;2023-04-10T01:38:47;101501.81;;;2.40;91.26
43125;BME280;49182;50.788;7.318;2023-04-10T01:41:15;101499.97;;;2.42;91.56
43125;BME280;49182;50.788;7.318;2023-04-10T01:43:42;101478.03;;;2.26;91.49
43125;BME280;49182;50.788;7.318;2023-04-10T01:46:12;101496.50;;;2.42;91.55
43125;BME280;49182;50.788;7.318;2023-04-10T01:48:40;101471.75;;;2.32;91.26
43125;BME280;49182;50.788;7.318;2023-04-10T01:51:08;101470.47;;;2.42;91.60
43125;BME280;49182;50.788;7.318;2023-04-10T01:53:36;101472.28;;;2.40;91.73
43125;BME280;49182;50.788;7.318;2023-04-10T01:56:04;101464.72;;;2.34;91.60
43125;BME280;49182;50.788;7.318;2023-04-10T01:58:39;101457.88;;;2.31;91.64
43125;BME280;49182;50.788;7.318;2023-04-10T02:01:06;101459.69;;;2.29;91.42
43125;BME280;49182;50.788;7.318;2023-04-10T02:03:35;101450.91;;;2.32;91.59
43125;BME280;49182;50.788;7.318;2023-04-10T02:06:10;101443.13;;;2.30;91.58
43125;BME280;49182;50.788;7.318;2023-04-10T02:08:45;101442.38;;;2.28;91.51
43125;BME280;49182;50.788;7.318;2023-04-10T02:11:22;101444.88;;;2.30;91.56
43125;BME280;49182;50.788;7.318;2023-04-10T02:13:52;101450.09;;;2.30;91.59
43125;BME280;49182;50.788;7.318;2023-04-10T02:16:20;101423.78;;;2.16;91.66
43125;BME280;49182;50.788;7.318;2023-04-10T02:18:50;101414.38;;;2.12;91.73
43125;BME280;49182;50.788;7.318;2023-04-10T02:21:18;101424.91;;;2.09;92.22
43125;BME280;49182;50.788;7.318;2023-04-10T02:23:45;101438.47;;;2.17;92.63
43125;BME280;49182;50.788;7.318;2023-04-10T02:26:14;101431.66;;;2.14;92.28
43125;BME280;49182;50.788;7.318;2023-04-10T02:28:40;101441.88;;;2.19;92.38
43125;BME280;49182;50.788;7.318;2023-04-10T02:31:07;101431.59;;;2.16;92.46
43125;BME280;49182;50.788;7.318;2023-04-10T02:33:34;101431.50;;;2.17;92.00
43125;BME280;49182;50.788;7.318;2023-04-10T02:36:02;101421.28;;;2.13;92.00
43125;BME280;49182;50.788;7.318;2023-04-10T02:38:29;101422.31;;;2.09;92.48
43125;BME280;49182;50.788;7.318;2023-04-10T02:40:56;101380.81;;;1.82;92.60
43125;BME280;49182;50.788;7.318;2023-04-10T02:43:22;101374.16;;;1.75;92.83
43125;BME280;49182;50.788;7.318;2023-04-10T02:45:49;101417.34;;;2.02;92.59
43125;BME280;49182;50.788;7.318;2023-04-10T02:48:22;101410.44;;;2.01;92.79
43125;BME280;49182;50.788;7.318;2023-04-10T02:50:55;101418.25;;;2.01;92.85
43125;BME280;49182;50.788;7.318;2023-04-10T02:53:23;101406.94;;;2.02;92.50
43125;BME280;49182;50.788;7.318;2023-04-10T02:55:53;101395.34;;;1.88;93.06
43125;BME280;49182;50.788;7.318;2023-04-10T02:58:20;101413.28;;;1.95;93.23
43125;BME280;49182;50.788;7.318;2023-04-10T03:00:48;101413.94;;;2.00;92.76
43125;BME280;49182;50.788;7.318;2023-04-10T03:03:27;101410.53;;;1.98;93.11
43125;BME280;49182;50.788;7.318;2023-04-10T03:05:55;101408.03;;;1.97;93.18
43125;BME280;49182;50.788;7.318;2023-04-10T03:08:28;101410.78;;;1.92;93.50
43125;BME280;49182;50.788;7.318;2023-04-10T03:10:55;101418.50;;;1.95;93.51
43125;BME280;49182;50.788;7.318;2023-04-10T03:13:21;101417.75;;;1.92;93.27
43125;BME280;49182;50.788;7.318;2023-04-10T03:15:48;101411.88;;;1.87;93.26
43125;BME280;49182;50.788;7.318;2023-04-10T03:18:15;101394.97;;;1.75;93.59
43125;BME280;49182;50.788;7.318;2023-04-10T03:20:43;101418.59;;;1.92;93.21
43125;BME280;49182;50.788;7.318;2023-04-10T03:23:10;101394.75;;;1.81;93.12
43125;BME280;49182;50.788;7.318;2023-04-10T03:25:38;101406.56;;;1.90;92.81
43125;BME280;49182;50.788;7.318;2023-04-10T03:28:06;101414.47;;;1.87;92.76
43125;BME280;49182;50.788;7.318;2023-04-10T03:30:33;101403.34;;;1.83;92.70
43125;BME280;49182;50.788;7.318;2023-04-10T03:33:01;101364.97;;;1.67;93.23
43125;BME280;49182;50.788;7.318;2023-04-10T03:35:28;101396.44;;;1.82;93.04
43125;BME280;49182;50.788;7.318;2023-04-10T03:37:55;101391.28;;;1.81;93.28
43125;BME280;49182;50.788;7.318;2023-04-10T03:40:21;101388.06;;;1.74;93.50
43125;BME280;49182;50.788;7.318;2023-04-10T03:42:49;101399.16;;;1.79;93.24
43125;BME280;49182;50.788;7.318;2023-04-10T03:45:16;101394.78;;;1.80;93.59
43125;BME280;49182;50.788;7.318;2023-04-10T03:47:44;101363.41;;;1.61;93.60
43125;BME280;49182;50.788;7.318;2023-04-10T03:50:13;101386.22;;;1.78;93.58
43125;BME280;49182;50.788;7.318;2023-04-10T03:52:47;101371.13;;;1.64;93.49
43125;BME280;49182;50.788;7.318;2023-04-10T03:55:15;101364.22;;;1.63;93.33
43125;BME280;49182;50.788;7.318;2023-04-10T03:57:42;101378.69;;;1.70;93.45
43125;BME280;49182;50.788;7.318;2023-04-10T04:00:11;101352.47;;;1.53;92.82
43125;BME280;49182;50.788;7.318;2023-04-10T04:02:46;101359.31;;;1.55;93.23
43125;BME280;49182;50.788;7.318;2023-04-10T04:05:21;101366.63;;;1.68;93.42
43125;BME280;49182;50.788;7.318;2023-04-10T04:08:08;101369.84;;;1.74;93.76
43125;BME280;49182;50.788;7.318;2023-04-10T04:10:52;101362.84;;;1.76;93.82
43125;BME280;49182;50.788;7.318;2023-04-10T04:13:31;101361.31;;;1.71;93.46
43125;BME280;49182;50.788;7.318;2023-04-10T04:16:08;101358.81;;;1.68;93.80
43125;BME280;49182;50.788;7.318;2023-04-10T04:18:49;101352.91;;;1.64;93.89
43125;BME280;49182;50.788;7.318;2023-04-10T04:21:29;101354.09;;;1.55;93.81
43125;BME280;49182;50.788;7.318;2023-04-10T04:24:04;101362.00;;;1.54;94.01
43125;BME280;49182;50.788;7.318;2023-04-10T04:26:52;101363.78;;;1.52;93.70
43125;BME280;49182;50.788;7.318;2023-04-10T04:29:51;101312.34;;;1.13;93.58
43125;BME280;49182;50.788;7.318;2023-04-10T04:32:25;101370.19;;;1.43;93.86
43125;BME280;49182;50.788;7.318;2023-04-10T04:35:01;101359.22;;;1.35;93.51
43125;BME280;49182;50.788;7.318;2023-04-10T04:37:46;101366.00;;;1.39;93.72
43125;BME280;49182;50.788;7.318;2023-04-10T04:40:31;101358.19;;;1.39;93.94
43125;BME280;49182;50.788;7.318;2023-04-10T04:43:11;101374.88;;;1.34;93.71
43125;BME280;49182;50.788;7.318;2023-04-10T04:45:55;101339.25;;;1.12;93.78
43125;BME280;49182;50.788;7.318;2023-04-10T04:48:58;101373.25;;;1.31;94.51
43125;BME280;49182;50.788;7.318;2023-04-10T04:51:40;101370.16;;;1.21;94.04
43125;BME280;49182;50.788;7.318;2023-04-10T04:54:11;101355.75;;;1.11;94.08
43125;BME280;49182;50.788;7.318;2023-04-10T04:56:59;101382.13;;;1.26;94.24
43125;BME280;49182;50.788;7.318;2023-04-10T04:59:51;101362.28;;;1.23;94.34
43125;BME280;49182;50.788;7.318;2023-04-10T05:02:56;101358.31;;;1.13;94.76
43125;BME280;49182;50.788;7.318;2023-04-10T05:05:57;101371.94;;;1.19;94.51
43125;BME280;49182;50.788;7.318;2023-04-10T05:08:23;101377.13;;;1.19;95.02
43125;BME280;49182;50.788;7.318;2023-04-10T05:11:09;101374.59;;;1.18;94.72
43125;BME280;49182;50.788;7.318;2023-04-10T05:13:49;101373.66;;;1.20;95.13
43125;BME280;49182;50.788;7.318;2023-04-10T05:16:33;101373.47;;;1.25;95.32
43125;BME280;49182;50.788;7.318;2023-04-10T05:19:20;101362.06;;;1.29;95.48
43125;BME280;49182;50.788;7.318;2023-04-10T05:21:55;101370.59;;;1.33;95.66
43125;BME280;49182;50.788;7.318;2023-04-10T05:24:30;101369.63;;;1.35;95.92
43125;BME280;49182;50.788;7.318;2023-04-10T05:27:11;101363.41;;;1.39;96.01
43125;BME280;49182;50.788;7.318;2023-04-10T05:29:57;101370.13;;;1.45;95.32
43125;BME280;49182;50.788;7.318;2023-04-10T05:32:37;101373.41;;;1.50;95.40
43125;BME280;49182;50.788;7.318;2023-04-10T05:35:24;101368.16;;;1.51;95.89
43125;BME280;49182;50.788;7.318;2023-04-10T05:38:02;101369.00;;;1.52;96.14
43125;BME280;49182;50.788;7.318;2023-04-10T05:40:50;101361.91;;;1.55;96.09
43125;BME280;49182;50.788;7.318;2023-04-10T05:43:35;101383.47;;;1.59;96.84
43125;BME280;49182;50.788;7.318;2023-04-10T05:46:10;101377.13;;;1.66;96.71
43125;BME280;49182;50.788;7.318;2023-04-10T05:49:09;101375.00;;;1.76;97.06
43125;BME280;49182;50.788;7.318;2023-04-10T05:51:54;101376.50;;;1.81;96.99
43125;BME280;49182;50.788;7.318;2023-04-10T05:54:45;101347.31;;;1.73;96.98
43125;BME280;49182;50.788;7.318;2023-04-10T05:57:44;101374.03;;;2.00;97.05
43125;BME280;49182;50.788;7.318;2023-04-10T06:00:23;101370.94;;;2.12;97.10
43125;BME280;49182;50.788;7.318;2023-04-10T06:03:21;101365.47;;;2.18;97.55
43125;BME280;49182;50.788;7.318;2023-04-10T06:05:53;101378.19;;;2.26;97.53
43125;BME280;49182;50.788;7.318;2023-04-10T06:08:20;101381.09;;;2.40;97.63
43125;BME280;49182;50.788;7.318;2023-04-10T06:10:48;101372.81;;;2.51;98.01
43125;BME280;49182;50.788;7.318;2023-04-10T06:13:15;101371.44;;;2.62;98.30
43125;BME280;49182;50.788;7.318;2023-04-10T06:15:42;101366.56;;;2.75;98.55
43125;BME280;49182;50.788;7.318;2023-04-10T06:18:09;101332.28;;;2.64;98.21
43125;BME280;49182;50.788;7.318;2023-04-10T06:20:36;101355.22;;;2.96;98.18
43125;BME280;49182;50.788;7.318;2023-04-10T06:23:03;101348.88;;;3.02;98.20
43125;BME280;49182;50.788;7.318;2023-04-10T06:25:29;101348.38;;;3.12;98.25
43125;BME280;49182;50.788;7.318;2023-04-10T06:27:59;101359.75;;;3.30;98.58
43125;BME280;49182;50.788;7.318;2023-04-10T06:30:26;101327.44;;;3.14;97.72
43125;BME280;49182;50.788;7.318;2023-04-10T06:32:53;101350.94;;;3.51;97.96
43125;BME280;49182;50.788;7.318;2023-04-10T06:35:20;101320.88;;;3.43;97.75
43125;BME280;49182;50.788;7.318;2023-04-10T06:37:47;101334.72;;;3.63;97.63
43125;BME280;49182;50.788;7.318;2023-04-10T06:40:15;101350.97;;;3.87;97.42
43125;BME280;49182;50.788;7.318;2023-04-10T06:42:42;101356.34;;;4.01;97.21
43125;BME280;49182;50.788;7.318;2023-04-10T06:45:21;101348.56;;;4.19;96.80
43125;BME280;49182;50.788;7.318;2023-04-10T06:47:48;101348.63;;;4.34;96.74
43125;BME280;49182;50.788;7.318;2023-04-10T06:50:15;101348.25;;;4.59;97.30
43125;BME280;49182;50.788;7.318;2023-04-10T06:52:42;101349.91;;;4.77;97.67
43125;BME280;49182;50.788;7.318;2023-04-10T06:55:09;101345.59;;;4.94;97.45
43125;BME280;49182;50.788;7.318;2023-04-10T06:57:35;101346.38;;;5.11;97.99
43125;BME280;49182;50.788;7.318;2023-04-10T07:00:02;101349.28;;;5.22;97.93
43125;BME280;49182;50.788;7.318;2023-04-10T07:02:30;101348.28;;;5.41;97.79
43125;BME280;49182;50.788;7.318;2023-04-10T07:04:57;101349.13;;;5.57;97.19
43125;BME280;49182;50.788;7.318;2023-04-10T07:07:24;101344.63;;;5.75;96.70
43125;BME280;49182;50.788;7.318;2023-04-10T07:09:50;101345.25;;;5.95;96.40
43125;BME280;49182;50.788;7.318;2023-04-10T07:12:17;101348.09;;;6.22;91.06
43125;BME280;49182;50.788;7.318;2023-04-10T07:14:44;101330.78;;;6.34;90.94
43125;BME280;49182;50.788;7.318;2023-04-10T07:17:10;101298.63;;;6.30;90.45
43125;BME280;49182;50.788;7.318;2023-04-10T07:19:38;101350.56;;;6.98;83.41
43125;BME280;49182;50.788;7.318;2023-04-10T07:22:05;101354.72;;;7.16;84.55
43125;BME280;49182;50.788;7.318;2023-04-10T07:24:32;101353.53;;;7.48;79.04
43125;BME280;49182;50.788;7.318;2023-04-10T07:26:59;101352.19;;;7.69;78.26
43125;BME280;49182;50.788;7.318;2023-04-10T07:29:25;101335.41;;;7.85;76.24
43125;BME280;49182;50.788;7.318;2023-04-10T07:31:52;101327.19;;;8.03;76.45
43125;BME280;49182;50.788;7.318;2023-04-10T07:34:19;101330.88;;;8.40;75.62
43125;BME280;49182;50.788;7.318;2023-04-10T07:36:47;101329.56;;;8.73;71.35
43125;BME280;49182;50.788;7.318;2023-04-10T07:39:14;101284.59;;;8.76;69.26
43125;BME280;49182;50.788;7.318;2023-04-10T07:41:40;101316.34;;;9.23;68.80
43125;BME280;49182;50.788;7.318;2023-04-10T07:44:07;101315.00;;;9.54;67.30
43125;BME280;49182;50.788;7.318;2023-04-10T07:46:34;101304.13;;;9.83;60.62
43125;BME280;49182;50.788;7.318;2023-04-10T07:49:01;101303.16;;;10.07;61.32
43125;BME280;49182;50.788;7.318;2023-04-10T07:51:27;101311.59;;;10.36;59.68
43125;BME280;49182;50.788;7.318;2023-04-10T07:53:55;101299.63;;;10.54;59.93
43125;BME280;49182;50.788;7.318;2023-04-10T07:56:22;101288.44;;;10.62;58.92
43125;BME280;49182;50.788;7.318;2023-04-10T07:58:50;101263.50;;;10.77;56.58
43125;BME280;49182;50.788;7.318;2023-04-10T08:01:16;101254.72;;;10.88;56.65
43125;BME280;49182;50.788;7.318;2023-04-10T08:03:44;101265.28;;;11.21;56.06
43125;BME280;49182;50.788;7.318;2023-04-10T08:06:11;101280.25;;;11.43;56.22
43125;BME280;49182;50.788;7.318;2023-04-10T08:08:39;101266.03;;;11.55;54.43
43125;BME280;49182;50.788;7.318;2023-04-10T08:11:22;101282.97;;;11.75;53.52
43125;BME280;49182;50.788;7.318;2023-04-10T08:13:49;101248.47;;;11.65;53.77
43125;BME280;49182;50.788;7.318;2023-04-10T08:16:17;101266.19;;;11.97;53.32
43125;BME280;49182;50.788;7.318;2023-04-10T08:18:44;101224.72;;;11.86;51.72
43125;BME280;49182;50.788;7.318;2023-04-10T08:21:10;101263.81;;;12.14;51.64
43125;BME280;49182;50.788;7.318;2023-04-10T08:23:37;101265.44;;;12.27;50.23
43125;BME280;49182;50.788;7.318;2023-04-10T08:26:04;101267.03;;;12.39;51.65
43125;BME280;49182;50.788;7.318;2023-04-10T08:28:32;101255.81;;;12.46;50.35
43125;BME280;49182;50.788;7.318;2023-04-10T08:30:59;101256.28;;;12.61;50.37
43125;BME280;49182;50.788;7.318;2023-04-10T08:33:25;101249.78;;;12.65;48.81
43125;BME280;49182;50.788;7.318;2023-04-10T08:35:52;101246.44;;;12.73;48.69
43125;BME280;49182;50.788;7.318;2023-04-10T08:38:19;101245.38;;;12.85;50.07
43125;BME280;49182;50.788;7.318;2023-04-10T08:40:45;101233.44;;;13.00;49.45
43125;BME280;49182;50.788;7.318;2023-04-10T08:43:12;101231.66;;;13.10;48.71
43125;BME280;49182;50.788;7.318;2023-04-10T08:45:40;101243.31;;;13.28;47.26
43125;BME280;49182;50.788;7.318;2023-04-10T08:48:09;101240.00;;;13.46;47.11
43125;BME280;49182;50.788;7.318;2023-04-10T08:50:40;101234.88;;;13.63;44.57
43125;BME280;49182;50.788;7.318;2023-04-10T08:53:10;101229.16;;;13.87;43.68
43125;BME280;49182;50.788;7.318;2023-04-10T08:55:37;101225.47;;;14.07;43.71
43125;BME280;49182;50.788;7.318;2023-04-10T08:58:05;101223.09;;;14.24;42.46
43125;BME280;49182;50.788;7.318;2023-04-10T09:00:32;101199.50;;;14.11;42.23
43125;BME280;49182;50.788;7.318;2023-04-10T09:03:00;101218.31;;;14.37;42.69
43125;BME280;49182;50.788;7.318;2023-04-10T09:05:28;101218.16;;;14.48;41.68
43125;BME280;49182;50.788;7.318;2023-04-10T09:07:55;101210.63;;;14.43;41.71
43125;BME280;49182;50.788;7.318;2023-04-10T09:10:22;101207.91;;;14.63;40.47
43125;BME280;49182;50.788;7.318;2023-04-10T09:12:49;101204.41;;;14.62;41.16
43125;BME280;49182;50.788;7.318;2023-04-10T09:15:15;101188.47;;;14.62;40.92
43125;BME280;49182;50.788;7.318;2023-04-10T09:17:56;101170.66;;;14.72;40.29
43125;BME280;49182;50.788;7.318;2023-04-10T09:20:26;101183.47;;;14.86;41.14
43125;BME280;49182;50.788;7.318;2023-04-10T09:22:53;101175.38;;;15.06;40.15
43125;BME280;49182;50.788;7.318;2023-04-10T09:25:31;101177.84;;;15.07;39.50
43125;BME280;49182;50.788;7.318;2023-04-10T09:28:02;101152.66;;;14.84;39.72
43125;BME280;49182;50.788;7.318;2023-04-10T09:30:33;101151.84;;;14.83;40.65
43125;BME280;49182;50.788;7.318;2023-04-10T09:33:00;101156.75;;;15.06;39.83
43125;BME280;49182;50.788;7.318;2023-04-10T09:35:37;101153.56;;;15.20;40.60
43125;BME280;49182;50.788;7.318;2023-04-10T09:38:14;101148.84;;;15.31;40.22
43125;BME280;49182;50.788;7.318;2023-04-10T09:40:41;101141.72;;;15.32;40.12
43125;BME280;49182;50.788;7.318;2023-04-10T09:43:22;101143.75;;;15.38;39.73
43125;BME280;49182;50.788;7.318;2023-04-10T09:45:50;101136.47;;;15.58;39.65
43125;BME280;49182;50.788;7.318;2023-04-10T09:48:18;101116.25;;;15.65;40.62
43125;BME280;49182;50.788;7.318;2023-04-10T09:50:46;101120.50;;;15.58;40.69
43125;BME280;49182;50.788;7.318;2023-04-10T09:53:14;101131.72;;;15.87;38.96
43125;BME280;49182;50.788;7.318;2023-04-10T09:55:42;101133.47;;;15.96;39.48
43125;BME280;49182;50.788;7.318;2023-04-10T09:58:09;101117.47;;;15.96;37.93
43125;BME280;49182;50.788;7.318;2023-04-10T10:00:39;101142.66;;;16.02;37.97
43125;BME280;49182;50.788;7.318;2023-04-10T10:03:07;101112.28;;;15.95;38.36
43125;BME280;49182;50.788;7.318;2023-04-10T10:05:39;101112.44;;;15.93;37.52
43125;BME280;49182;50.788;7.318;2023-04-10T10:08:09;101133.53;;;16.04;37.70
43125;BME280;49182;50.788;7.318;2023-04-10T10:10:37;101113.81;;;15.97;38.06
43125;BME280;49182;50.788;7.318;2023-04-10T10:13:07;101112.56;;;16.09;37.01
43125;BME280;49182;50.788;7.318;2023-04-10T10:15:35;101089.84;;;15.97;36.92
43125;BME280;49182;50.788;7.318;2023-04-10T10:18:12;101120.56;;;16.09;37.02
43125;BME280;49182;50.788;7.318;2023-04-10T10:20:44;101110.94;;;16.16;37.23
43125;BME280;49182;50.788;7.318;2023-04-10T10:23:12;101111.50;;;16.28;36.58
43125;BME280;49182;50.788;7.318;2023-04-10T10:25:41;101091.03;;;16.37;36.09
43125;BME280;49182;50.788;7.318;2023-04-10T10:28:11;101097.78;;;16.57;37.00
43125;BME280;49182;50.788;7.318;2023-04-10T10:30:39;101085.38;;;16.66;35.64
43125;BME280;49182;50.788;7.318;2023-04-10T10:33:06;101097.03;;;16.73;34.88
43125;BME280;49182;50.788;7.318;2023-04-10T10:35:34;101093.53;;;16.64;35.53
43125;BME280;49182;50.788;7.318;2023-04-10T10:38:02;101085.72;;;16.79;35.82
43125;BME280;49182;50.788;7.318;2023-04-10T10:40:34;101055.22;;;16.81;34.41
43125;BME280;49182;50.788;7.318;2023-04-10T10:43:09;101084.94;;;17.03;33.21
43125;BME280;49182;50.788;7.318;2023-04-10T10:45:41;101076.28;;;17.09;33.88
43125;BME280;49182;50.788;7.318;2023-04-10T10:48:13;101053.75;;;17.11;32.78
43125;BME280;49182;50.788;7.318;2023-04-10T10:50:53;101061.91;;;16.93;33.39
43125;BME280;49182;50.788;7.318;2023-04-10T10:53:39;101060.09;;;17.02;34.44
43125;BME280;49182;50.788;7.318;2023-04-10T10:56:34;101040.25;;;16.96;33.52
43125;BME280;49182;50.788;7.318;2023-04-10T10:59:02;101034.25;;;17.03;33.46
43125;BME280;49182;50.788;7.318;2023-04-10T11:01:28;101031.09;;;17.15;32.69
43125;BME280;49182;50.788;7.318;2023-04-10T11:03:55;101023.25;;;17.14;31.92
43125;BME280;49182;50.788;7.318;2023-04-10T11:06:50;101008.72;;;17.16;32.96
43125;BME280;49182;50.788;7.318;2023-04-10T11:09:45;101014.41;;;17.21;32.82
43125;BME280;49182;50.788;7.318;2023-04-10T11:12:14;101002.41;;;17.33;32.58
43125;BME280;49182;50.788;7.318;2023-04-10T11:14:42;100996.38;;;17.39;31.34
43125;BME280;49182;50.788;7.318;2023-04-10T11:17:09;100980.22;;;17.25;32.14
43125;BME280;49182;50.788;7.318;2023-04-10T11:19:55;100994.72;;;17.38;31.90
43125;BME280;49182;50.788;7.318;2023-04-10T11:22:22;100973.88;;;17.34;31.65
43125;BME280;49182;50.788;7.318;2023-04-10T11:24:58;100979.03;;;17.35;30.92
43125;BME280;49182;50.788;7.318;2023-04-10T11:27:46;100961.22;;;17.28;31.69
43125;BME280;49182;50.788;7.318;2023-04-10T11:30:30;100960.69;;;17.32;32.54
43125;BME280;49182;50.788;7.318;2023-04-10T11:32:58;100964.19;;;17.33;32.64
43125;BME280;49182;50.788;7.318;2023-04-10T11:35:25;100934.63;;;17.43;32.76
43125;BME280;49182;50.788;7.318;2023-04-10T11:38:07;100935.94;;;17.55;33.18
43125;BME280;49182;50.788;7.318;2023-04-10T11:40:33;100935.78;;;17.64;32.83
43125;BME280;49182;50.788;7.318;2023-04-10T11:43:12;100921.88;;;17.77;31.94
43125;BME280;49182;50.788;7.318;2023-04-10T11:45:39;100915.16;;;17.89;31.18
43125;BME280;49182;50.788;7.318;2023-04-10T11:48:06;100909.28;;;17.94;31.12
43125;BME280;49182;50.788;7.318;2023-04-10T11:50:32;100914.19;;;17.82;30.94
43125;BME280;49182;50.788;7.318;2023-04-10T11:52:59;100923.34;;;17.79;31.10
43125;BME280;49182;50.788;7.318;2023-04-10T11:55:35;100914.44;;;17.95;30.30
43125;BME280;49182;50.788;7.318;2023-04-10T11:58:02;100906.25;;;17.97;31.29
43125;BME280;49182;50.788;7.318;2023-04-10T12:00:30;100904.91;;;18.01;31.24
43125;BME280;49182;50.788;7.318;2023-04-10T12:02:57;100899.56;;;18.01;31.33
43125;BME280;49182;50.788;7.318;2023-04-10T12:05:24;100892.00;;;18.04;31.14
43125;BME280;49182;50.788;7.318;2023-04-10T12:07:50;100898.66;;;18.08;31.67
43125;BME280;49182;50.788;7.318;2023-04-10T12:10:17;100871.50;;;17.97;30.28
43125;BME280;49182;50.788;7.318;2023-04-10T12:12:44;100893.13;;;18.10;30.54
43125;BME280;49182;50.788;7.318;2023-04-10T12:15:26;100872.84;;;18.01;30.84
43125;BME280;49182;50.788;7.318;2023-04-10T12:17:55;100877.59;;;18.13;31.28
43125;BME280;49182;50.788;7.318;2023-04-10T12:20:21;100882.81;;;18.07;30.45
43125;BME280;49182;50.788;7.318;2023-04-10T12:22:48;100877.09;;;18.10;30.64
43125;BME280;49182;50.788;7.318;2023-04-10T12:25:19;100874.94;;;18.13;30.20
43125;BME280;49182;50.788;7.318;2023-04-10T12:27:48;100883.50;;;18.32;30.52
43125;BME280;49182;50.788;7.318;2023-04-10T12:30:14;100891.16;;;18.35;31.10
43125;BME280;49182;50.788;7.318;2023-04-10T12:32:49;100875.84;;;18.51;31.49
43125;BME280;49182;50.788;7.318;2023-04-10T12:35:18;100866.31;;;18.49;31.08
43125;BME280;49182;50.788;7.318;2023-04-10T12:37:48;100826.34;;;18.33;30.92
43125;BME280;49182;50.788;7.318;2023-04-10T12:40:15;100869.81;;;18.57;30.64
43125;BME280;49182;50.788;7.318;2023-04-10T12:42:42;100855.91;;;18.54;30.51
43125;BME280;49182;50.788;7.318;2023-04-10T12:45:09;100860.13;;;18.48;30.99
43125;BME280;49182;50.788;7.318;2023-04-10T12:47:43;100852.00;;;18.42;31.48
43125;BME280;49182;50.788;7.318;2023-04-10T12:50:11;100851.69;;;18.37;30.81
43125;BME280;49182;50.788;7.318;2023-04-10T12:52:41;100837.69;;;18.12;32.39
43125;BME280;49182;50.788;7.318;2023-04-10T12:55:09;100836.25;;;18.01;30.87
43125;BME280;49182;50.788;7.318;2023-04-10T12:57:38;100848.25;;;18.05;32.24
43125;BME280;49182;50.788;7.318;2023-04-10T13:00:05;100806.75;;;17.95;32.57
43125;BME280;49182;50.788;7.318;2023-04-10T13:02:32;100833.88;;;18.29;33.42
43125;BME280;49182;50.788;7.318;2023-04-10T13:04:59;100823.88;;;18.46;32.58
43125;BME280;49182;50.788;7.318;2023-04-10T13:07:25;100818.16;;;18.57;33.52
43125;BME280;49182;50.788;7.318;2023-04-10T13:09:53;100817.91;;;18.81;32.12
43125;BME280;49182;50.788;7.318;2023-04-10T13:12:20;100817.81;;;19.04;32.89
43125;BME280;49182;50.788;7.318;2023-04-10T13:14:47;100789.66;;;19.08;31.96
43125;BME280;49182;50.788;7.318;2023-04-10T13:17:13;100810.13;;;19.45;31.32
43125;BME280;49182;50.788;7.318;2023-04-10T13:19:40;100802.28;;;19.58;32.87